Time;durP1;ratioP1;P1;durP2;ratioP2;P2;SDS_P1;SDS_P2;PMS_P1;PMS_P2;Temp;Humidity;BMP_temperature;BMP_pressure;BME280_temperature;BME280_humidity;BME280_pressure;Samples;Min_cycle;Max_cycle;Signal;HPM_P1;HPM_P2
2023/10/01 00:01:42;;;;;;;10.80;6.57;;;13.60;95.90;;;;;;5009667;28;20499;-90
2023/10/01 00:04:08;;;;;;;7.63;6.80;;;13.50;96.00;;;;;;5001286;28;20025;-91
2023/10/01 00:06:34;;;;;;;8.20;6.32;;;13.50;95.90;;;;;;5001827;28;20570;-93
2023/10/01 00:09:02;;;;;;;8.55;5.00;;;13.60;95.40;;;;;;5014809;28;20415;-91
2023/10/01 00:11:28;;;;;;;9.38;6.75;;;13.60;94.90;;;;;;4997937;28;20036;-90
2023/10/01 00:13:54;;;;;;;8.52;7.43;;;13.50;96.10;;;;;;5001326;28;20101;-89
2023/10/01 00:16:19;;;;;;;6.88;5.38;;;13.50;96.00;;;;;;5004977;28;20030;-93
2023/10/01 00:18:47;;;;;;;7.25;5.63;;;13.30;96.80;;;;;;5006494;28;20018;-93
2023/10/01 00:21:13;;;;;;;12.85;6.78;;;13.30;96.70;;;;;;5009594;28;20029;-90
2023/10/01 00:23:40;;;;;;;9.95;6.32;;;13.20;96.20;;;;;;4981045;28;20093;-90
2023/10/01 00:26:06;;;;;;;9.43;7.10;;;13.20;96.30;;;;;;5008835;28;20093;-90
2023/10/01 00:28:31;;;;;;;8.23;5.82;;;13.20;96.70;;;;;;5002530;28;20023;-91
2023/10/01 00:30:57;;;;;;;10.05;6.53;;;13.20;96.90;;;;;;4996625;28;20076;-90
2023/10/01 00:33:23;;;;;;;11.57;7.95;;;13.30;96.90;;;;;;4996996;28;20053;-90
2023/10/01 00:35:48;;;;;;;7.90;5.97;;;13.20;96.90;;;;;;5009460;28;20060;-91
2023/10/01 00:38:16;;;;;;;9.30;6.38;;;13.20;96.80;;;;;;4999174;28;20089;-90
2023/10/01 00:40:45;;;;;;;9.63;6.00;;;13.10;97.20;;;;;;5006342;28;20042;-91
2023/10/01 00:43:12;;;;;;;10.85;6.80;;;13.20;97.10;;;;;;5005759;28;20023;-92
2023/10/01 00:45:37;;;;;;;7.10;6.13;;;13.10;96.40;;;;;;5012286;28;20402;-89
2023/10/01 00:48:06;;;;;;;9.07;6.22;;;13.10;95.70;;;;;;5013790;28;20623;-91
2023/10/01 00:50:34;;;;;;;7.68;6.32;;;13.10;95.60;;;;;;5010828;28;20018;-89
2023/10/01 00:53:00;;;;;;;7.57;6.88;;;13.10;95.90;;;;;;5016601;28;20061;-90
2023/10/01 00:55:26;;;;;;;8.00;5.88;;;13.10;95.90;;;;;;5016692;28;20022;-91
2023/10/01 00:57:56;;;;;;;8.70;6.45;;;13.10;96.00;;;;;;4995534;28;20026;-91
2023/10/01 01:00:25;;;;;;;8.00;6.13;;;13.00;96.50;;;;;;5001440;28;20045;-89
2023/10/01 01:02:58;;;;;;;13.05;7.07;;;13.00;95.80;;;;;;4992817;28;20107;-92
2023/10/01 01:05:37;;;;;;;8.38;6.55;;;12.80;96.80;;;;;;4988438;28;20094;-92
2023/10/01 01:08:22;;;;;;;8.13;5.90;;;12.80;97.80;;;;;;4993024;28;20091;-91
2023/10/01 01:10:50;;;;;;;9.63;6.70;;;12.80;97.80;;;;;;5014437;28;20060;-90
2023/10/01 01:13:18;;;;;;;;;;;12.90;97.50;;;;;;5006475;28;20033;-89
2023/10/01 01:15:49;;;;;;;12.57;9.02;;;12.90;97.00;;;;;;4990038;28;20450;-90
2023/10/01 01:18:14;;;;;;;8.30;5.97;;;12.80;96.00;;;;;;5010264;28;20022;-90
2023/10/01 01:20:45;;;;;;;7.30;6.10;;;12.80;96.00;;;;;;5012238;28;20026;-90
2023/10/01 01:23:18;;;;;;;7.28;5.10;;;12.80;97.20;;;;;;5012701;28;20022;-90
2023/10/01 01:25:45;;;;;;;8.27;6.40;;;12.70;96.50;;;;;;5013287;28;20033;-91
2023/10/01 01:28:15;;;;;;;6.90;6.05;;;12.70;96.90;;;;;;5003257;28;20101;-91
2023/10/01 01:30:47;;;;;;;7.88;6.20;;;12.80;96.80;;;;;;5012522;28;20037;-90
2023/10/01 01:33:20;;;;;;;8.80;7.00;;;12.60;96.90;;;;;;4991288;28;20117;-90
2023/10/01 01:35:50;;;;;;;8.75;5.80;;;12.60;96.80;;;;;;5019604;28;20033;-91
2023/10/01 01:38:16;;;;;;;8.98;8.07;;;12.50;97.00;;;;;;5020050;28;20084;-90
2023/10/01 01:40:47;;;;;;;6.45;4.95;;;12.60;97.00;;;;;;5015425;28;20033;-90
2023/10/01 01:43:21;;;;;;;8.88;5.75;;;12.70;96.40;;;;;;5012487;28;20018;-90
2023/10/01 01:45:54;;;;;;;;;;;12.60;96.10;;;;;;5012049;28;20022;-90
2023/10/01 01:51:02;;;;;;;7.43;6.55;;;12.50;96.30;;;;;;5011416;28;20018;-90
2023/10/01 01:53:35;;;;;;;7.53;6.10;;;12.40;96.40;;;;;;5006008;28;20026;-89
2023/10/01 01:56:10;;;;;;;9.70;5.90;;;12.40;97.20;;;;;;5001948;28;20021;-89
2023/10/01 01:58:37;;;;;;;8.43;6.80;;;12.40;97.20;;;;;;5013792;28;20022;-91
2023/10/01 02:01:17;;;;;;;;;;;;;;;;;;;;;
2023/10/01 02:03:37;;;;;;;8.43;7.63;;;12.30;96.90;;;;;;5026068;28;20026;-92
2023/10/01 02:06:07;;;;;;;8.60;6.22;;;12.40;97.10;;;;;;5011798;28;20029;-90
2023/10/01 02:08:57;;;;;;;8.05;7.13;;;12.30;96.90;;;;;;5013232;28;20030;-92
2023/10/01 02:11:23;;;;;;;8.10;6.07;;;12.30;97.10;;;;;;5014011;28;20084;-89
2023/10/01 02:13:58;;;;;;;9.82;6.93;;;12.30;97.60;;;;;;4985450;28;20060;-90
2023/10/01 02:22:03;;;;;;;8.25;4.35;;;12.30;96.20;;;;;;5007660;28;20395;-91
2023/10/01 02:24:44;;;;;;;8.18;5.95;;;12.30;96.50;;;;;;5013357;28;20524;-90
2023/10/01 02:27:14;;;;;;;9.57;7.20;;;12.30;96.70;;;;;;5016729;28;20037;-91
2023/10/01 02:29:45;;;;;;;9.32;6.55;;;12.30;96.30;;;;;;5018443;28;20033;-90
2023/10/01 02:32:15;;;;;;;8.20;6.57;;;12.30;95.80;;;;;;4999561;28;20030;-92
2023/10/01 02:34:44;;;;;;;9.05;6.15;;;12.30;96.40;;;;;;4993892;28;20042;-90
2023/10/01 02:37:10;;;;;;;7.60;6.85;;;12.20;96.90;;;;;;4999980;28;20113;-89
2023/10/01 02:39:37;;;;;;;8.57;6.32;;;12.10;96.50;;;;;;4996329;28;20093;-89
2023/10/01 02:42:09;;;;;;;;;;;12.10;96.70;;;;;;5002422;28;20022;-91
2023/10/01 02:44:40;;;;;;;7.65;6.32;;;12.00;97.20;;;;;;5015101;28;19913;-91
2023/10/01 02:47:16;;;;;;;8.55;6.63;;;12.10;96.90;;;;;;5009779;28;20045;-89
2023/10/01 02:49:49;;;;;;;9.38;5.88;;;12.00;97.00;;;;;;4995318;28;20033;-93
2023/10/01 02:52:15;;;;;;;7.03;5.75;;;12.10;96.80;;;;;;5010335;28;20086;-92
2023/10/01 02:54:41;;;;;;;9.45;7.07;;;12.10;96.40;;;;;;5022231;28;20515;-90
2023/10/01 02:57:13;;;;;;;8.80;7.00;;;12.10;96.50;;;;;;5005173;28;20030;-88
2023/10/01 03:02:31;;;;;;;8.30;6.72;;;12.00;97.50;;;;;;5019339;28;20480;-92
2023/10/01 03:05:03;;;;;;;8.57;6.25;;;11.90;97.00;;;;;;5020156;28;20022;-92
2023/10/01 03:07:33;;;;;;;8.82;7.20;;;11.90;97.60;;;;;;5019371;28;20036;-91
2023/10/01 03:10:00;;;;;;;8.05;6.75;;;11.80;97.80;;;;;;5010610;28;20057;-90
2023/10/01 03:12:34;;;;;;;7.40;6.15;;;11.80;97.30;;;;;;5001944;28;20059;-90
2023/10/01 03:15:00;;;;;;;8.35;7.50;;;11.80;97.00;;;;;;5018509;28;20082;-90
2023/10/01 03:17:38;;;;;;;8.68;6.13;;;11.80;98.00;;;;;;5004263;28;20068;-90
2023/10/01 03:23:01;;;;;;;6.63;5.22;;;11.80;97.50;;;;;;4978501;28;20038;-91
2023/10/01 03:25:30;;;;;;;8.50;7.13;;;11.90;96.90;;;;;;5019837;28;20018;-90
2023/10/01 03:27:59;;;;;;;9.18;6.88;;;11.80;96.70;;;;;;5016848;28;20030;-91
2023/10/01 03:30:31;;;;;;;9.35;7.38;;;11.80;96.70;;;;;;4999144;28;20026;-90
2023/10/01 03:33:07;;;;;;;7.80;5.82;;;11.80;98.60;;;;;;4991214;28;20034;-91
2023/10/01 03:35:34;;;;;;;7.32;6.00;;;11.80;98.80;;;;;;4999638;28;20044;-90
2023/10/01 03:38:10;;;;;;;7.85;6.93;;;11.80;97.00;;;;;;5016642;28;20424;-91
2023/10/01 03:40:59;;;;;;;13.15;7.45;;;11.80;97.00;;;;;;5017215;28;20033;-92
2023/10/01 03:43:31;;;;;;;7.97;5.78;;;11.80;97.00;;;;;;5011226;28;20019;-90
2023/10/01 03:46:06;;;;;;;10.07;6.90;;;11.80;96.80;;;;;;5004569;28;20049;-90
2023/10/01 03:48:57;;;;;;;9.13;6.00;;;11.60;98.00;;;;;;5005960;28;20018;-92
2023/10/01 03:51:28;;;;;;;7.30;5.38;;;11.60;98.00;;;;;;4997205;28;20026;-91
2023/10/01 03:53:59;;;;;;;7.38;5.95;;;11.60;97.10;;;;;;5004166;28;20022;-89
2023/10/01 03:56:29;;;;;;;9.60;6.22;;;11.60;97.70;;;;;;5024594;28;20034;-94
2023/10/01 03:58:55;;;;;;;8.10;6.65;;;11.50;98.00;;;;;;5001039;28;20018;-88
2023/10/01 04:01:26;;;;;;;6.85;5.88;;;11.50;97.90;;;;;;5010571;28;20506;-88
2023/10/01 04:03:52;;;;;;;8.35;7.50;;;11.50;97.70;;;;;;5018060;28;20076;-89
2023/10/01 04:06:21;;;;;;;8.60;7.70;;;11.50;98.00;;;;;;5020728;28;20029;-91
2023/10/01 04:08:48;;;;;;;9.23;5.97;;;11.50;97.60;;;;;;5002871;28;20100;-92
2023/10/01 04:11:15;;;;;;;8.20;5.78;;;11.50;97.80;;;;;;4993059;28;20056;-90
2023/10/01 04:13:41;;;;;;;8.30;6.78;;;11.50;98.00;;;;;;4997514;28;20087;-91
2023/10/01 04:16:15;;;;;;;8.77;7.97;;;11.40;98.30;;;;;;5017109;28;20538;-89
2023/10/01 04:18:42;;;;;;;6.93;5.70;;;11.40;98.10;;;;;;5017893;28;20022;-91
2023/10/01 04:23:40;;;;;;;8.35;6.55;;;11.40;98.60;;;;;;5027550;28;20013;-95
2023/10/01 04:26:08;;;;;;;9.00;7.03;;;11.40;98.70;;;;;;5019177;28;20392;-90
2023/10/01 04:28:43;;;;;;;9.07;5.93;;;11.40;98.10;;;;;;5016612;28;20100;-90
2023/10/01 04:31:10;;;;;;;8.70;6.32;;;11.40;97.90;;;;;;5000719;28;20109;-89
2023/10/01 04:33:36;;;;;;;9.82;7.85;;;11.40;97.90;;;;;;4992330;28;20031;-90
2023/10/01 04:36:05;;;;;;;7.55;6.85;;;11.40;98.40;;;;;;5004880;28;20081;-91
2023/10/01 04:38:32;;;;;;;8.93;7.20;;;11.30;98.20;;;;;;4978906;28;20022;-89
2023/10/01 04:41:03;;;;;;;10.02;7.25;;;11.30;99.00;;;;;;5010822;28;20081;-90
2023/10/01 04:43:34;;;;;;;8.60;6.80;;;11.40;98.20;;;;;;4996919;28;20259;-90
2023/10/01 04:46:03;;;;;;;8.15;7.22;;;11.40;98.00;;;;;;4987550;28;20509;-90
2023/10/01 04:48:29;;;;;;;8.98;7.68;;;11.30;99.30;;;;;;4978392;28;20105;-91
2023/10/01 04:50:55;;;;;;;7.60;5.97;;;11.30;98.60;;;;;;5012674;28;20018;-91
2023/10/01 04:53:22;;;;;;;7.00;6.30;;;11.20;98.20;;;;;;4999823;28;20033;-89
2023/10/01 04:56:01;;;;;;;8.55;7.75;;;11.10;98.80;;;;;;5002484;28;20022;-90
2023/10/01 04:58:36;;;;;;;10.88;6.63;;;11.10;99.60;;;;;;5021222;28;20048;-90
2023/10/01 05:01:05;;;;;;;8.23;6.50;;;11.10;99.60;;;;;;4996174;28;20049;-91
2023/10/01 05:03:40;;;;;;;12.70;7.05;;;11.10;99.40;;;;;;5007782;28;20022;-91
2023/10/01 05:06:13;;;;;;;7.93;7.15;;;11.10;98.70;;;;;;5004417;28;20022;-90
2023/10/01 05:08:39;;;;;;;7.53;6.93;;;11.00;98.70;;;;;;5005576;28;20503;-88
2023/10/01 05:11:10;;;;;;;10.10;6.70;;;11.00;98.60;;;;;;5017788;28;20034;-92
2023/10/01 05:13:39;;;;;;;8.90;7.30;;;11.00;98.80;;;;;;5017003;28;20101;-90
2023/10/01 05:16:06;;;;;;;7.25;5.97;;;11.00;98.70;;;;;;5013216;28;20018;-88
2023/10/01 05:18:35;;;;;;;8.40;6.55;;;11.00;98.30;;;;;;5004131;28;20037;-92
2023/10/01 05:21:09;;;;;;;7.15;6.13;;;11.00;98.20;;;;;;5022663;28;20022;-89
2023/10/01 05:23:36;;;;;;;6.80;6.05;;;11.10;98.20;;;;;;4990154;28;20018;-91
2023/10/01 05:26:03;;;;;;;8.00;6.75;;;11.00;98.10;;;;;;4989633;28;20053;-90
2023/10/01 05:28:31;;;;;;;7.63;6.93;;;11.00;98.20;;;;;;4997399;28;20028;-91
2023/10/01 05:30:59;;;;;;;8.65;7.55;;;11.00;98.50;;;;;;4987558;28;20022;-90
2023/10/01 05:33:25;;;;;;;7.65;6.45;;;11.00;98.60;;;;;;5000577;28;20023;-89
2023/10/01 05:35:57;;;;;;;7.22;5.13;;;11.00;98.60;;;;;;5011374;28;20420;-92
2023/10/01 05:38:26;;;;;;;7.00;6.15;;;11.10;98.00;;;;;;5005862;28;20022;-89
2023/10/01 05:40:54;;;;;;;8.32;6.00;;;11.20;97.60;;;;;;4993191;28;20014;-93
2023/10/01 05:43:23;;;;;;;8.15;6.70;;;11.30;97.20;;;;;;5018111;28;20025;-90
2023/10/01 05:45:52;;;;;;;7.55;5.95;;;11.20;97.30;;;;;;5013853;28;20026;-91
2023/10/01 05:48:19;;;;;;;8.95;6.55;;;11.00;97.70;;;;;;4995652;28;20030;-92
2023/10/01 05:50:46;;;;;;;8.55;7.03;;;11.10;98.40;;;;;;5009294;28;20038;-90
2023/10/01 05:53:13;;;;;;;8.88;6.32;;;11.00;98.70;;;;;;5018656;28;20060;-91
2023/10/01 05:55:43;;;;;;;7.78;6.88;;;11.10;99.10;;;;;;5019572;28;20037;-90
2023/10/01 05:58:21;;;;;;;7.93;5.43;;;11.00;99.30;;;;;;5017995;28;20117;-91
2023/10/01 06:00:57;;;;;;;7.53;6.03;;;11.00;99.20;;;;;;5017997;28;20070;-91
2023/10/01 06:03:25;;;;;;;10.20;9.07;;;11.10;99.40;;;;;;5019306;28;20018;-90
2023/10/01 06:06:08;;;;;;;8.90;7.50;;;11.10;99.40;;;;;;5001664;28;20022;-91
2023/10/01 06:08:45;;;;;;;8.98;7.68;;;11.20;99.60;;;;;;5007074;28;20030;-89
2023/10/01 06:11:18;;;;;;;9.50;8.60;;;11.20;99.90;;;;;;5007526;28;20468;-91
2023/10/01 06:13:49;;;;;;;8.60;7.75;;;11.20;99.70;;;;;;5008022;28;20022;-90
2023/10/01 06:16:23;;;;;;;9.68;8.23;;;11.30;99.90;;;;;;5006783;28;20042;-91
2023/10/01 06:18:59;;;;;;;9.55;8.15;;;11.40;99.90;;;;;;4998541;28;20034;-89
2023/10/01 06:21:31;;;;;;;9.30;6.22;;;11.50;99.90;;;;;;4980074;28;20667;-89
2023/10/01 06:23:58;;;;;;;8.23;5.63;;;11.40;99.90;;;;;;5007632;28;20045;-90
2023/10/01 06:26:37;;;;;;;7.45;6.30;;;11.50;99.90;;;;;;4994160;28;20082;-90
2023/10/01 06:29:07;;;;;;;9.57;7.07;;;11.50;99.90;;;;;;5017069;28;20030;-90
2023/10/01 06:31:52;;;;;;;9.10;5.78;;;11.50;99.90;;;;;;5017286;28;20026;-90
2023/10/01 06:34:21;;;;;;;9.38;5.60;;;11.60;99.80;;;;;;5008519;28;20026;-93
2023/10/01 06:36:55;;;;;;;8.77;6.68;;;11.70;99.90;;;;;;5008887;28;20114;-90
2023/10/01 06:39:23;;;;;;;9.38;5.60;;;11.70;99.90;;;;;;5004553;28;20026;-90
2023/10/01 06:41:49;;;;;;;6.45;5.72;;;11.70;99.90;;;;;;5009841;28;20041;-91
2023/10/01 06:44:15;;;;;;;10.50;7.53;;;11.70;99.90;;;;;;5015980;28;20025;-89
2023/10/01 06:46:41;;;;;;;9.15;8.15;;;11.80;99.90;;;;;;5017602;28;20018;-90
2023/10/01 06:49:10;;;;;;;8.50;6.30;;;11.90;99.90;;;;;;5005969;28;20037;-91
2023/10/01 06:51:45;;;;;;;8.35;7.10;;;11.90;99.90;;;;;;5001770;28;20026;-88
2023/10/01 06:54:12;;;;;;;9.02;7.63;;;12.00;99.90;;;;;;5013564;28;20041;-90
2023/10/01 06:56:44;;;;;;;7.20;6.38;;;12.10;99.90;;;;;;4990461;28;20033;-89
2023/10/01 07:01:47;;;;;;;9.63;6.13;;;12.20;99.90;;;;;;5016191;28;20034;-90
2023/10/01 07:04:20;;;;;;;8.75;7.25;;;12.30;99.90;;;;;;5013597;28;20037;-90
2023/10/01 07:06:50;;;;;;;9.02;6.43;;;12.40;99.90;;;;;;4990367;28;20026;-90
2023/10/01 07:09:27;;;;;;;;;;;;;;;;;;;;;
2023/10/01 07:11:56;;;;;;;10.18;8.52;;;12.60;99.90;;;;;;5006997;28;20037;-90
2023/10/01 07:14:30;;;;;;;11.88;7.95;;;12.80;99.90;;;;;;5013359;28;20026;-90
2023/10/01 07:17:03;;;;;;;11.93;6.88;;;12.80;99.90;;;;;;5012430;28;20037;-89
2023/10/01 07:19:29;;;;;;;8.95;6.88;;;12.90;99.90;;;;;;5011035;28;20089;-88
2023/10/01 07:21:58;;;;;;;11.27;6.60;;;13.00;99.90;;;;;;4999254;28;20082;-90
2023/10/01 07:24:28;;;;;;;7.70;6.90;;;13.00;99.90;;;;;;4996976;28;20022;-89
2023/10/01 07:27:03;;;;;;;9.75;7.32;;;13.10;99.90;;;;;;4997790;28;20027;-90
2023/10/01 07:29:35;;;;;;;11.15;7.63;;;13.20;99.90;;;;;;5010431;28;20034;-89
2023/10/01 07:32:06;;;;;;;9.27;7.43;;;13.30;99.90;;;;;;4997855;28;20245;-91
2023/10/01 07:34:33;;;;;;;13.55;7.80;;;13.30;99.90;;;;;;4993255;28;20112;-91
2023/10/01 07:36:59;;;;;;;10.82;7.88;;;13.50;99.90;;;;;;4987875;28;20045;-92
2023/10/01 07:39:31;;;;;;;12.98;8.52;;;13.50;99.90;;;;;;5014821;28;20061;-89
2023/10/01 07:41:59;;;;;;;10.52;9.25;;;13.60;99.90;;;;;;4991429;28;20105;-90
2023/10/01 07:44:25;;;;;;;12.20;9.23;;;13.70;99.90;;;;;;5004140;28;20079;-92
2023/10/01 07:46:51;;;;;;;13.23;6.88;;;13.80;99.90;;;;;;4999302;28;20530;-91
2023/10/01 07:49:18;;;;;;;11.25;7.97;;;13.90;99.90;;;;;;4989816;28;20115;-92
2023/10/01 07:51:48;;;;;;;11.57;8.23;;;13.90;99.90;;;;;;4990857;28;20030;-90
2023/10/01 07:54:22;;;;;;;13.02;9.38;;;14.10;99.90;;;;;;4991444;28;20566;-90
2023/10/01 07:56:49;;;;;;;11.50;7.93;;;14.10;99.90;;;;;;5013518;28;20033;-89
2023/10/01 07:59:34;;;;;;;;;;;14.20;99.90;;;;;;4991729;28;20526;-89
2023/10/01 08:04:58;;;;;;;13.75;7.82;;;14.40;99.90;;;;;;4996409;28;20091;-90
2023/10/01 08:07:30;;;;;;;13.80;7.72;;;14.40;99.90;;;;;;4992221;28;20030;-89
2023/10/01 08:10:00;;;;;;;11.43;7.00;;;14.50;99.90;;;;;;5014796;28;20026;-89
2023/10/01 08:13:24;;;;;;;10.68;8.15;;;14.60;99.90;;;;;;5016781;28;20021;-90
2023/10/01 08:15:31;;;;;;;12.60;7.00;;;14.60;99.90;;;;;;4996011;28;20053;-90
2023/10/01 08:18:19;;;;;;;13.55;8.18;;;14.80;99.90;;;;;;5002700;28;20072;-90
2023/10/01 08:21:00;;;;;;;13.77;8.45;;;14.80;99.90;;;;;;4997440;28;20018;-91
2023/10/01 08:23:31;;;;;;;10.20;8.65;;;14.90;99.90;;;;;;5001460;28;20650;-93
2023/10/01 08:25:58;;;;;;;11.82;7.25;;;15.10;99.30;;;;;;5015490;28;20026;-93
2023/10/01 08:31:01;;;;;;;9.98;7.68;;;15.30;97.20;;;;;;5017824;28;20033;-93
2023/10/01 08:33:32;;;;;;;12.93;7.13;;;15.40;97.50;;;;;;4996796;28;20567;-91
2023/10/01 08:36:14;;;;;;;10.48;7.22;;;15.50;95.90;;;;;;5014489;28;20042;-94
2023/10/01 08:39:19;;;;;;;11.73;7.13;;;15.60;95.50;;;;;;5031763;28;20030;-92
2023/10/01 08:41:50;;;;;;;9.77;6.82;;;15.80;96.30;;;;;;5025267;28;20084;-96
2023/10/01 08:44:54;;;;;;;11.75;7.68;;;15.90;93.00;;;;;;5030126;28;20052;-92
2023/10/01 08:47:22;;;;;;;11.75;8.15;;;16.00;94.00;;;;;;5008433;28;20125;-93
2023/10/01 08:49:52;;;;;;;11.23;6.63;;;16.00;93.00;;;;;;5003949;28;20029;-91
2023/10/01 08:52:26;;;;;;;11.63;6.85;;;16.20;92.90;;;;;;5020139;28;20031;-92
2023/10/01 08:54:55;;;;;;;;;;;16.20;93.90;;;;;;5025051;28;20025;-94
2023/10/01 08:57:45;;;;;;;10.73;8.35;;;16.40;92.80;;;;;;5024628;28;19918;-94
2023/10/01 09:00:20;;;;;;;12.07;8.18;;;16.60;91.80;;;;;;5040080;28;20013;-94
2023/10/01 09:03:10;;;;;;;12.02;7.45;;;16.70;90.60;;;;;;5046657;28;20037;-96
2023/10/01 09:05:46;;;;;;;10.73;6.15;;;16.80;90.20;;;;;;5030663;23;20046;-91
2023/10/01 09:08:30;;;;;;;11.00;8.27;;;16.90;89.90;;;;;;5004306;28;20044;-90
2023/10/01 09:10:56;;;;;;;10.85;6.93;;;17.10;88.90;;;;;;5019810;28;20053;-92
2023/10/01 09:13:26;;;;;;;9.82;6.68;;;17.10;88.10;;;;;;5001858;28;20037;-90
2023/10/01 09:15:58;;;;;;;10.38;6.55;;;17.40;87.40;;;;;;4998292;28;20053;-91
2023/10/01 09:18:25;;;;;;;8.27;6.60;;;17.40;86.70;;;;;;5003924;28;20057;-90
2023/10/01 09:21:09;;;;;;;9.13;6.93;;;17.50;85.90;;;;;;5020196;28;20019;-90
2023/10/01 09:26:39;;;;;;;9.00;6.00;;;18.00;82.80;;;;;;5027670;28;20072;-89
2023/10/01 09:29:26;;;;;;;10.57;7.43;;;18.30;81.70;;;;;;5017806;28;20048;-90
2023/10/01 09:32:07;;;;;;;9.07;6.47;;;18.40;81.20;;;;;;5015992;28;20034;-91
2023/10/01 09:34:35;;;;;;;10.27;6.10;;;18.50;80.50;;;;;;4999834;28;20112;-90
2023/10/01 09:37:15;;;;;;;12.15;7.50;;;18.80;78.70;;;;;;5018086;28;20037;-90
2023/10/01 09:39:44;;;;;;;9.48;5.47;;;18.90;78.50;;;;;;4994166;28;20022;-91
2023/10/01 09:42:24;;;;;;;8.75;6.40;;;19.10;76.90;;;;;;5021732;28;20026;-91
2023/10/01 09:44:52;;;;;;;7.97;6.00;;;19.30;74.80;;;;;;5018146;28;20022;-90
2023/10/01 09:47:25;;;;;;;8.77;6.10;;;19.70;74.20;;;;;;5015948;28;20018;-91
2023/10/01 09:49:58;;;;;;;9.52;6.00;;;19.80;74.20;;;;;;5017677;28;20026;-91
2023/10/01 09:52:30;;;;;;;9.90;6.65;;;20.00;73.20;;;;;;4990443;28;20508;-90
2023/10/01 09:55:05;;;;;;;9.38;5.15;;;20.20;72.30;;;;;;5019297;28;20026;-91
2023/10/01 09:57:39;;;;;;;10.73;6.45;;;20.10;71.40;;;;;;4986589;28;20022;-90
2023/10/01 10:00:17;;;;;;;10.52;7.05;;;20.40;70.20;;;;;;5020672;28;20046;-90
2023/10/01 10:02:52;;;;;;;9.32;6.30;;;20.60;69.60;;;;;;5023970;28;20120;-91
2023/10/01 10:05:27;;;;;;;8.93;5.75;;;20.80;68.40;;;;;;5005668;28;20081;-89
2023/10/01 10:08:13;;;;;;;10.40;6.75;;;21.00;67.70;;;;;;5028160;28;20048;-90
2023/10/01 10:10:48;;;;;;;8.93;6.55;;;21.00;66.70;;;;;;5001369;28;20054;-91
2023/10/01 10:13:50;;;;;;;7.70;5.65;;;21.30;66.00;;;;;;5003755;28;20045;-91
2023/10/01 10:16:35;;;;;;;8.35;4.00;;;21.50;65.70;;;;;;4960790;28;20481;-91
2023/10/01 10:19:26;;;;;;;11.50;6.95;;;21.40;64.30;;;;;;5013063;28;20030;-90
2023/10/01 10:24:30;;;;;;;11.02;6.18;;;21.80;62.00;;;;;;5017793;28;20105;-91
2023/10/01 10:26:58;;;;;;;9.93;5.50;;;22.00;60.60;;;;;;5008652;28;20026;-89
2023/10/01 10:29:24;;;;;;;10.77;6.28;;;22.20;61.30;;;;;;5016231;28;20227;-89
2023/10/01 10:32:10;;;;;;;9.77;5.22;;;22.30;60.00;;;;;;4999537;28;20037;-90
2023/10/01 10:35:02;;;;;;;9.00;5.93;;;22.20;59.80;;;;;;5018206;28;20033;-91
2023/10/01 10:37:39;;;;;;;10.07;5.75;;;22.50;58.10;;;;;;4995102;28;20030;-92
2023/10/01 10:43:04;;;;;;;9.10;5.97;;;22.70;58.20;;;;;;5013629;28;20022;-92
2023/10/01 10:45:44;;;;;;;7.45;5.03;;;22.80;58.10;;;;;;5012619;28;20085;-92
2023/10/01 10:48:21;;;;;;;8.50;6.03;;;23.20;58.50;;;;;;4998223;28;20030;-90
2023/10/01 10:50:53;;;;;;;11.55;6.22;;;23.20;58.30;;;;;;4999785;28;20124;-90
2023/10/01 10:53:26;;;;;;;7.65;5.70;;;23.70;58.00;;;;;;5018212;28;20030;-90
2023/10/01 10:56:06;;;;;;;9.30;5.82;;;23.90;56.90;;;;;;5017185;28;20036;-91
2023/10/01 10:58:39;;;;;;;9.98;5.80;;;23.40;58.30;;;;;;4998656;28;20048;-92
2023/10/01 11:01:21;;;;;;;8.85;6.15;;;23.60;57.20;;;;;;4989310;28;20038;-90
2023/10/01 11:03:57;;;;;;;7.18;5.35;;;23.90;55.60;;;;;;4999215;28;20022;-90
2023/10/01 11:07:13;;;;;;;11.27;5.75;;;24.30;54.10;;;;;;4999602;28;20022;-91
2023/10/01 11:12:05;;;;;;;9.38;6.18;;;24.50;53.40;;;;;;5000787;28;20082;-91
2023/10/01 11:14:53;;;;;;;8.45;4.75;;;24.40;50.70;;;;;;5019311;28;20022;-91
2023/10/01 11:17:22;;;;;;;11.02;5.88;;;24.70;50.70;;;;;;4998602;28;20148;-90
2023/10/01 11:19:47;;;;;;;7.88;5.28;;;24.70;50.40;;;;;;5015451;28;20018;-92
2023/10/01 11:22:22;;;;;;;8.73;4.90;;;24.80;50.50;;;;;;4989530;28;20073;-92
2023/10/01 11:24:52;;;;;;;9.40;6.05;;;25.20;49.10;;;;;;5015998;28;20108;-91
2023/10/01 11:30:13;;;;;;;7.82;4.70;;;25.70;46.50;;;;;;5017772;28;20116;-90
2023/10/01 11:33:29;;;;;;;;;;;25.30;47.40;;;;;;5002035;28;20049;-91
2023/10/01 11:36:06;;;;;;;9.55;4.78;;;25.30;47.00;;;;;;5001982;28;20267;-91
2023/10/01 11:38:33;;;;;;;8.63;4.85;;;25.30;47.90;;;;;;4991362;28;20053;-90
2023/10/01 11:41:12;;;;;;;8.95;4.70;;;25.30;48.30;;;;;;5004001;28;20050;-92
2023/10/01 11:43:58;;;;;;;7.60;4.15;;;25.70;45.70;;;;;;4999968;28;20227;-91
2023/10/01 11:49:32;;;;;;;10.88;5.75;;;25.80;46.90;;;;;;5011818;28;20113;-90
2023/10/01 11:52:05;;;;;;;7.20;4.75;;;26.10;45.40;;;;;;5018035;28;20105;-90
2023/10/01 11:54:52;;;;;;;;;;;26.10;45.00;;;;;;5018224;28;20022;-90
2023/10/01 11:57:23;;;;;;;7.75;5.03;;;26.10;44.50;;;;;;5017040;28;19990;-89
2023/10/01 11:59:58;;;;;;;8.10;4.78;;;26.30;44.30;;;;;;5000059;28;20129;-89
2023/10/01 12:02:32;;;;;;;9.88;5.47;;;26.80;43.60;;;;;;5018219;28;20454;-91
2023/10/01 12:05:06;;;;;;;8.80;4.95;;;26.60;43.70;;;;;;4993159;28;20025;-89
2023/10/01 12:07:45;;;;;;;9.30;4.80;;;26.90;41.50;;;;;;4996738;28;20033;-91
2023/10/01 12:12:58;;;;;;;9.60;5.18;;;26.70;41.90;;;;;;5016540;28;20036;-91
2023/10/01 12:18:13;;;;;;;7.43;5.10;;;27.00;42.70;;;;;;5015952;28;20041;-91
2023/10/01 12:20:47;;;;;;;9.10;4.90;;;27.00;42.10;;;;;;5016572;28;20127;-90
2023/10/01 12:23:18;;;;;;;8.63;5.38;;;26.90;42.60;;;;;;5008647;28;20022;-90
2023/10/01 12:25:53;;;;;;;9.90;5.72;;;28.10;41.00;;;;;;4995159;28;20064;-90
2023/10/01 12:28:27;;;;;;;8.93;5.25;;;27.80;40.10;;;;;;5004286;28;20019;-91
2023/10/01 12:30:57;;;;;;;9.65;5.57;;;28.00;41.20;;;;;;5028150;28;20021;-91
2023/10/01 12:33:38;;;;;;;10.20;6.22;;;28.40;39.10;;;;;;5009726;28;20034;-92
2023/10/01 12:36:42;;;;;;;9.07;4.85;;;28.40;39.70;;;;;;5022698;28;20029;-90
2023/10/01 12:41:56;;;;;;;9.68;5.07;;;28.40;39.40;;;;;;5018159;28;20022;-90
2023/10/01 12:44:30;;;;;;;10.13;5.32;;;28.50;39.10;;;;;;5015339;28;20395;-90
2023/10/01 12:47:15;;;;;;;9.80;5.57;;;28.40;39.20;;;;;;5019513;28;20125;-88
2023/10/01 12:49:42;;;;;;;8.80;4.95;;;28.70;38.50;;;;;;5010462;28;20027;-90
2023/10/01 12:52:14;;;;;;;9.38;5.32;;;28.60;38.30;;;;;;5015704;28;20172;-90
2023/10/01 12:54:41;;;;;;;8.93;5.05;;;28.80;38.00;;;;;;4998653;28;20377;-90
2023/10/01 12:57:12;;;;;;;8.48;4.63;;;29.30;38.00;;;;;;4986823;28;20030;-90
2023/10/01 12:59:46;;;;;;;9.75;4.88;;;29.30;37.90;;;;;;4998478;28;20568;-91
2023/10/01 13:03:09;;;;;;;6.75;4.47;;;29.50;37.40;;;;;;4990216;28;20026;-91
2023/10/01 13:07:53;;;;;;;8.30;4.88;;;29.30;36.90;;;;;;5015341;28;20113;-89
2023/10/01 13:10:33;;;;;;;8.60;4.75;;;29.70;36.60;;;;;;5009605;28;20527;-90
2023/10/01 13:13:01;;;;;;;8.45;4.88;;;30.40;35.50;;;;;;5011272;28;20109;-91
2023/10/01 13:15:30;;;;;;;9.88;5.63;;;30.50;35.20;;;;;;5016020;28;20018;-90
2023/10/01 13:18:04;;;;;;;9.43;4.90;;;30.20;35.00;;;;;;5018127;28;20046;-90
2023/10/01 13:20:46;;;;;;;9.95;5.18;;;30.50;35.00;;;;;;4986261;28;20493;-91
2023/10/01 13:23:12;;;;;;;10.07;4.55;;;30.20;35.30;;;;;;5001512;28;20046;-90
2023/10/01 13:25:46;;;;;;;8.60;4.75;;;29.90;36.10;;;;;;5002367;28;20381;-91
2023/10/01 13:28:19;;;;;;;9.48;5.00;;;29.60;36.60;;;;;;5019773;28;20022;-91
2023/10/01 13:33:25;;;;;;;9.93;4.82;;;30.50;35.20;;;;;;5006412;28;20041;-92
2023/10/01 13:35:57;;;;;;;9.70;4.85;;;30.40;36.20;;;;;;4987857;28;20025;-91
2023/10/01 13:38:37;;;;;;;8.02;4.47;;;30.80;35.40;;;;;;5017562;28;20022;-90
2023/10/01 14:11:10;;;;;;;9.50;5.63;;;32.50;31.00;;;;;;5008204;28;20045;-90
2023/10/01 14:13:36;;;;;;;9.77;4.60;;;31.60;32.30;;;;;;4999258;28;20096;-90
2023/10/01 14:16:12;;;;;;;8.20;4.97;;;31.80;32.30;;;;;;5016072;28;20025;-90
2023/10/01 14:18:44;;;;;;;9.75;5.35;;;31.70;32.30;;;;;;5016726;28;20109;-89
2023/10/01 14:21:12;;;;;;;9.30;5.05;;;32.30;31.90;;;;;;5020959;28;20119;-90
2023/10/01 14:23:42;;;;;;;9.75;5.82;;;32.50;31.10;;;;;;5018882;28;20030;-91
2023/10/01 14:26:20;;;;;;;8.38;4.68;;;32.00;32.50;;;;;;5015028;28;20022;-90
2023/10/01 14:28:48;;;;;;;8.93;4.80;;;32.10;32.60;;;;;;5016205;28;20022;-88
2023/10/01 14:31:41;;;;;;;8.60;5.20;;;32.40;31.30;;;;;;5012989;28;20033;-90
2023/10/01 14:34:03;;;;;;;9.60;4.60;;;31.90;31.70;;;;;;5018817;28;20033;-90
2023/10/01 14:36:29;;;;;;;9.65;5.22;;;31.80;32.60;;;;;;5018012;28;20026;-91
2023/10/01 14:38:58;;;;;;;9.68;5.63;;;32.30;32.10;;;;;;5017689;28;20030;-90
2023/10/01 14:41:28;;;;;;;9.98;5.78;;;31.90;32.60;;;;;;5014290;28;20030;-90